Time;durP1;ratioP1;P1;durP2;ratioP2;P2;SDS_P1;SDS_P2;PMS_P1;PMS_P2;Temp;Humidity;BMP_temperature;BMP_pressure;BME280_temperature;BME280_humidity;BME280_pressure;Samples;Min_cycle;Max_cycle;Signal;HPM_P1;HPM_P2
2023/07/08 00:03:58;;;;;;;6.95;5.55;;;;;;;;;;10446674;28;20040;-83
2023/07/08 00:08:59;;;;;;;7.75;5.43;;;;;;;;;;10448847;28;20048;-81
2023/07/08 00:14:00;;;;;;;8.55;5.10;;;;;;;;;;10448567;28;20087;-82
2023/07/08 00:19:01;;;;;;;6.38;5.07;;;;;;;;;;10448019;28;20112;-82
2023/07/08 00:24:03;;;;;;;6.25;4.80;;;;;;;;;;10447516;28;20742;-81
2023/07/08 00:29:09;;;;;;;5.40;4.40;;;;;;;;;;10462770;28;20037;-82
2023/07/08 00:34:10;;;;;;;6.60;4.70;;;;;;;;;;10443901;28;20033;-82
2023/07/08 00:39:14;;;;;;;6.30;4.40;;;;;;;;;;10458587;28;20025;-82
2023/07/08 00:44:15;;;;;;;8.50;4.63;;;;;;;;;;10444755;28;20774;-82
2023/07/08 00:49:29;;;;;;;6.78;4.40;;;;;;;;;;10446800;28;20186;-82
2023/07/08 00:54:30;;;;;;;6.85;4.63;;;;;;;;;;10440894;28;20032;-82
2023/07/08 00:59:33;;;;;;;6.53;5.20;;;;;;;;;;10446650;28;20090;-81
2023/07/08 01:04:54;;;;;;;10.23;5.55;;;;;;;;;;10445356;28;20040;-81
2023/07/08 01:09:58;;;;;;;7.38;5.22;;;;;;;;;;10437787;28;20057;-82
2023/07/08 01:15:02;;;;;;;11.63;6.75;;;;;;;;;;10444571;28;20060;-82
2023/07/08 01:20:13;;;;;;;9.60;6.13;;;;;;;;;;10443176;28;20036;-83
2023/07/08 01:25:14;;;;;;;12.07;8.45;;;;;;;;;;10444126;28;20041;-81
2023/07/08 01:30:16;;;;;;;9.68;7.25;;;;;;;;;;10445583;28;20707;-81
2023/07/08 01:35:17;;;;;;;14.52;9.38;;;;;;;;;;10444208;28;21098;-82
2023/07/08 01:40:27;;;;;;;16.90;11.02;;;;;;;;;;10444173;28;20021;-81
2023/07/08 01:45:30;;;;;;;20.15;12.90;;;;;;;;;;10444598;28;20037;-82
2023/07/08 01:50:32;;;;;;;17.15;11.02;;;;;;;;;;10443840;28;20037;-82
2023/07/08 01:55:33;;;;;;;17.75;12.10;;;;;;;;;;10444109;28;20029;-81
2023/07/08 02:00:34;;;;;;;17.45;11.80;;;;;;;;;;10442367;28;20032;-82
2023/07/08 02:05:35;;;;;;;19.30;12.90;;;;;;;;;;10440782;28;20041;-82
2023/07/08 02:10:37;;;;;;;23.65;12.80;;;;;;;;;;10443178;28;20120;-82
2023/07/08 02:15:38;;;;;;;15.70;11.23;;;;;;;;;;10442632;28;20029;-81
2023/07/08 02:20:39;;;;;;;16.95;10.60;;;;;;;;;;10441788;28;20032;-81
2023/07/08 02:25:40;;;;;;;15.40;9.27;;;;;;;;;;10443010;28;20045;-82
2023/07/08 02:30:41;;;;;;;16.40;10.20;;;;;;;;;;10442792;28;20025;-82
2023/07/08 02:35:42;;;;;;;16.83;9.32;;;;;;;;;;10442815;28;20037;-82
2023/07/08 02:40:43;;;;;;;13.27;9.18;;;;;;;;;;10443762;28;20388;-82
2023/07/08 02:45:44;;;;;;;13.27;9.80;;;;;;;;;;10442437;28;20041;-82
2023/07/08 02:50:46;;;;;;;15.27;9.52;;;;;;;;;;10441217;28;20029;-82
2023/07/08 02:55:47;;;;;;;12.98;9.20;;;;;;;;;;10442333;28;20459;-82
2023/07/08 03:00:52;;;;;;;14.18;10.15;;;;;;;;;;10441344;28;20113;-82
2023/07/08 03:05:57;;;;;;;14.75;10.70;;;;;;;;;;10445025;28;20052;-81
2023/07/08 03:10:59;;;;;;;16.63;10.73;;;;;;;;;;10448956;28;20492;-82
2023/07/08 03:16:01;;;;;;;12.48;9.75;;;;;;;;;;10448439;28;20507;-82
2023/07/08 03:21:02;;;;;;;14.45;9.85;;;;;;;;;;10449563;28;20111;-82
2023/07/08 03:26:03;;;;;;;12.85;9.60;;;;;;;;;;10448793;28;20478;-82
2023/07/08 03:31:04;;;;;;;13.93;9.57;;;;;;;;;;10449190;28;20120;-81
2023/07/08 03:36:11;;;;;;;13.80;9.82;;;;;;;;;;10449056;28;20467;-82
2023/07/08 03:41:12;;;;;;;12.90;9.75;;;;;;;;;;10449292;28;20028;-83
2023/07/08 03:46:14;;;;;;;13.63;9.90;;;;;;;;;;10446839;28;20032;-82
2023/07/08 03:51:23;;;;;;;15.32;10.52;;;;;;;;;;10448724;28;20531;-82
2023/07/08 03:56:24;;;;;;;15.73;12.38;;;;;;;;;;10448481;28;20829;-82
2023/07/08 04:01:25;;;;;;;17.13;12.35;;;;;;;;;;10448586;28;20048;-82
2023/07/08 04:06:28;;;;;;;16.02;11.02;;;;;;;;;;10448476;28;20565;-82
2023/07/08 04:11:29;;;;;;;17.58;12.52;;;;;;;;;;10446045;28;20048;-82
2023/07/08 04:16:32;;;;;;;16.90;12.02;;;;;;;;;;10446283;28;20143;-81
2023/07/08 04:21:33;;;;;;;16.88;11.27;;;;;;;;;;10446661;28;20071;-82
2023/07/08 04:26:39;;;;;;;17.48;13.02;;;;;;;;;;10444986;28;20036;-81
2023/07/08 04:31:41;;;;;;;18.30;13.43;;;;;;;;;;10446844;28;20029;-80
2023/07/08 04:36:42;;;;;;;17.27;12.55;;;;;;;;;;10445493;28;20025;-81
2023/07/08 04:41:43;;;;;;;17.17;12.07;;;;;;;;;;10446297;28;20025;-81
2023/07/08 04:46:44;;;;;;;18.75;12.68;;;;;;;;;;10445885;28;20052;-81
2023/07/08 04:51:45;;;;;;;16.85;11.90;;;;;;;;;;10443979;28;20528;-82
2023/07/08 04:56:48;;;;;;;19.48;12.27;;;;;;;;;;10445366;28;20029;-82
2023/07/08 05:01:49;;;;;;;17.30;10.98;;;;;;;;;;10443496;28;20040;-83
2023/07/08 05:06:50;;;;;;;17.17;12.20;;;;;;;;;;10443166;28;20033;-80
2023/07/08 05:11:52;;;;;;;19.55;11.15;;;;;;;;;;10444584;28;20404;-81
2023/07/08 05:16:53;;;;;;;18.38;11.68;;;;;;;;;;10442648;28;20059;-81
2023/07/08 05:21:54;;;;;;;18.42;11.20;;;;;;;;;;10443288;28;20055;-82
2023/07/08 05:26:55;;;;;;;16.77;10.82;;;;;;;;;;10450128;28;20021;-82
2023/07/08 05:31:56;;;;;;;18.77;11.05;;;;;;;;;;10444567;28;20035;-83
2023/07/08 05:36:58;;;;;;;16.50;11.30;;;;;;;;;;10454418;28;20899;-82
2023/07/08 05:41:59;;;;;;;16.77;10.82;;;;;;;;;;10443464;28;20037;-82
2023/07/08 05:47:00;;;;;;;20.95;11.73;;;;;;;;;;10444561;28;20080;-83
2023/07/08 05:52:06;;;;;;;15.85;11.35;;;;;;;;;;10442386;28;20480;-82
2023/07/08 05:57:07;;;;;;;17.42;11.70;;;;;;;;;;10442535;28;20033;-81
2023/07/08 06:02:10;;;;;;;16.60;10.07;;;;;;;;;;10442217;28;20029;-82
2023/07/08 06:07:11;;;;;;;17.92;11.27;;;;;;;;;;10441882;28;20091;-81
2023/07/08 06:12:12;;;;;;;16.20;10.45;;;;;;;;;;10442041;28;20401;-82
2023/07/08 06:17:13;;;;;;;18.08;10.93;;;;;;;;;;10428999;28;20033;-82
2023/07/08 06:22:14;;;;;;;17.25;9.75;;;;;;;;;;10446606;28;20173;-84
2023/07/08 06:27:15;;;;;;;14.95;8.88;;;;;;;;;;10445049;28;20028;-84
2023/07/08 06:32:16;;;;;;;12.90;8.15;;;;;;;;;;10436759;28;20028;-82
2023/07/08 06:37:17;;;;;;;9.98;7.55;;;;;;;;;;10439719;28;20025;-84
2023/07/08 06:42:18;;;;;;;10.50;6.95;;;;;;;;;;10448417;28;20044;-86
2023/07/08 06:47:20;;;;;;;10.52;6.57;;;;;;;;;;10459728;28;20029;-84
2023/07/08 06:52:21;;;;;;;7.78;5.45;;;;;;;;;;10450205;28;20033;-83
2023/07/08 06:57:22;;;;;;;8.85;5.28;;;;;;;;;;10455042;28;20096;-84
2023/07/08 07:02:23;;;;;;;9.85;5.75;;;;;;;;;;10441817;28;20481;-83
2023/07/08 07:07:24;;;;;;;7.63;5.40;;;;;;;;;;10448233;28;20037;-85
2023/07/08 07:12:25;;;;;;;8.13;4.95;;;;;;;;;;10449029;28;20025;-85
2023/07/08 07:17:27;;;;;;;8.82;5.00;;;;;;;;;;10446962;28;20029;-85
2023/07/08 07:22:28;;;;;;;8.15;3.88;;;;;;;;;;10447531;28;20129;-84
2023/07/08 07:27:29;;;;;;;4.70;3.85;;;;;;;;;;10445370;28;20017;-84
2023/07/08 07:32:32;;;;;;;5.20;3.95;;;;;;;;;;10447352;28;20056;-84
2023/07/08 07:37:33;;;;;;;7.43;4.32;;;;;;;;;;10447705;28;20507;-85
2023/07/08 07:42:34;;;;;;;8.18;5.32;;;;;;;;;;10444964;28;20051;-85
2023/07/08 07:47:36;;;;;;;12.35;5.18;;;;;;;;;;10446557;28;20029;-82
2023/07/08 07:52:37;;;;;;;6.55;4.70;;;;;;;;;;10444261;28;20029;-85
2023/07/08 07:57:38;;;;;;;5.50;3.85;;;;;;;;;;10445024;28;20495;-82
2023/07/08 08:02:39;;;;;;;5.47;3.88;;;;;;;;;;10445234;28;20037;-85
2023/07/08 08:07:40;;;;;;;6.72;3.70;;;;;;;;;;10442946;28;20072;-86
2023/07/08 08:12:42;;;;;;;4.90;2.22;;;;;;;;;;10440603;28;20556;-83
2023/07/08 08:17:47;;;;;;;2.80;2.33;;;;;;;;;;10447317;28;20033;-83
2023/07/08 08:22:48;;;;;;;2.95;2.53;;;;;;;;;;10443447;28;20202;-83
2023/07/08 08:27:52;;;;;;;4.80;2.67;;;;;;;;;;10445449;28;20025;-84
2023/07/08 08:32:53;;;;;;;4.60;3.28;;;;;;;;;;10445963;28;20029;-82
2023/07/08 08:37:54;;;;;;;4.60;2.38;;;;;;;;;;10452933;28;20049;-83
2023/07/08 08:43:00;;;;;;;6.20;3.40;;;;;;;;;;10435890;28;20048;-84
2023/07/08 08:48:04;;;;;;;7.18;2.90;;;;;;;;;;10441185;28;20037;-83
2023/07/08 08:53:06;;;;;;;2.90;2.60;;;;;;;;;;10440800;28;20093;-85
2023/07/08 08:58:24;;;;;;;2.85;2.40;;;;;;;;;;10446567;28;20469;-83
2023/07/08 09:03:25;;;;;;;5.50;2.90;;;;;;;;;;10441386;28;20070;-83
2023/07/08 09:08:29;;;;;;;3.88;2.65;;;;;;;;;;10445462;28;20077;-84
2023/07/08 09:13:30;;;;;;;4.00;2.67;;;;;;;;;;10435269;28;20056;-85
2023/07/08 09:18:35;;;;;;;5.00;3.03;;;;;;;;;;10444910;28;20031;-82
2023/07/08 09:23:36;;;;;;;4.20;2.60;;;;;;;;;;10443873;28;20102;-83
2023/07/08 09:28:38;;;;;;;2.90;2.60;;;;;;;;;;10444957;28;20021;-83
2023/07/08 09:33:39;;;;;;;5.60;2.60;;;;;;;;;;10443685;28;20035;-83
2023/07/08 09:38:40;;;;;;;4.10;2.42;;;;;;;;;;10443767;28;20032;-85
2023/07/08 09:43:42;;;;;;;3.88;2.25;;;;;;;;;;10442186;28;20043;-84
2023/07/08 09:48:43;;;;;;;3.67;2.35;;;;;;;;;;10443324;28;20040;-83
2023/07/08 09:53:45;;;;;;;3.15;2.20;;;;;;;;;;10438496;28;20047;-82
2023/07/08 09:58:48;;;;;;;6.13;2.33;;;;;;;;;;10443045;28;20402;-82
2023/07/08 10:03:50;;;;;;;7.38;2.88;;;;;;;;;;10442267;28;20392;-83
2023/07/08 10:08:53;;;;;;;3.72;2.72;;;;;;;;;;10440635;28;20057;-84
2023/07/08 10:13:56;;;;;;;3.70;2.37;;;;;;;;;;10446827;28;20036;-84
2023/07/08 10:18:58;;;;;;;5.00;2.38;;;;;;;;;;10456089;28;20113;-82
2023/07/08 10:24:13;;;;;;;4.25;2.70;;;;;;;;;;10446889;28;20132;-83
2023/07/08 10:29:39;;;;;;;4.72;3.25;;;;;;;;;;10453463;28;20025;-83
2023/07/08 10:34:50;;;;;;;3.67;2.75;;;;;;;;;;10453435;28;20059;-83
2023/07/08 10:39:51;;;;;;;6.65;2.97;;;;;;;;;;10456026;28;20120;-82
2023/07/08 10:45:08;;;;;;;3.17;2.50;;;;;;;;;;10456119;28;20037;-82
2023/07/08 10:50:09;;;;;;;4.20;2.40;;;;;;;;;;10454672;28;20064;-85
2023/07/08 10:55:22;;;;;;;4.22;2.65;;;;;;;;;;10455057;28;20519;-86
2023/07/08 11:00:28;;;;;;;4.03;2.33;;;;;;;;;;10454470;28;20021;-85
2023/07/08 11:05:37;;;;;;;4.07;2.67;;;;;;;;;;10454881;28;20036;-86
2023/07/08 11:11:00;;;;;;;6.47;3.05;;;;;;;;;;10453976;28;20412;-83
2023/07/08 11:16:05;;;;;;;2.65;2.40;;;;;;;;;;10451161;28;20388;-86
2023/07/08 11:21:10;;;;;;;7.03;3.47;;;;;;;;;;10455816;28;20039;-86
2023/07/08 11:26:21;;;;;;;3.85;3.08;;;;;;;;;;10450783;28;20511;-83
2023/07/08 11:31:23;;;;;;;57.65;14.85;;;;;;;;;;10447433;28;20040;-81
2023/07/08 11:36:25;;;;;;;2.40;2.03;;;;;;;;;;10448364;28;20039;-87
2023/07/08 11:41:31;;;;;;;3.33;2.42;;;;;;;;;;10448156;28;20032;-82
2023/07/08 11:46:33;;;;;;;4.13;2.60;;;;;;;;;;10449016;28;20024;-85
2023/07/08 11:51:36;;;;;;;3.97;2.58;;;;;;;;;;10448961;28;20037;-83
2023/07/08 11:56:48;;;;;;;4.50;2.38;;;;;;;;;;10446410;28;20091;-84
2023/07/08 12:01:49;;;;;;;2.72;2.42;;;;;;;;;;10447144;28;20104;-83
2023/07/08 12:06:58;;;;;;;5.13;2.58;;;;;;;;;;10446124;28;20071;-83
2023/07/08 12:12:05;;;;;;;3.63;2.50;;;;;;;;;;10462371;28;20063;-84
2023/07/08 12:17:11;;;;;;;4.43;2.40;;;;;;;;;;10445247;28;20040;-85
2023/07/08 12:22:12;;;;;;;4.07;2.75;;;;;;;;;;10460839;28;20480;-83
2023/07/08 12:27:13;;;;;;;3.63;2.58;;;;;;;;;;10447028;28;20825;-83
2023/07/08 12:32:14;;;;;;;2.53;2.05;;;;;;;;;;10445367;28;20040;-84
2023/07/08 12:37:16;;;;;;;3.38;2.22;;;;;;;;;;10444834;28;20064;-83
2023/07/08 12:42:17;;;;;;;4.13;2.38;;;;;;;;;;10444960;28;20041;-84
2023/07/08 12:47:20;;;;;;;3.17;1.95;;;;;;;;;;10445889;28;20021;-82
2023/07/08 12:52:22;;;;;;;3.50;2.17;;;;;;;;;;10441009;28;20540;-81
2023/07/08 12:57:23;;;;;;;4.32;2.00;;;;;;;;;;10445128;28;20035;-81
2023/07/08 13:02:26;;;;;;;2.85;2.35;;;;;;;;;;10444591;28;20024;-84
2023/07/08 13:07:37;;;;;;;2.42;2.22;;;;;;;;;;10445073;28;20059;-82
2023/07/08 13:12:40;;;;;;;3.85;2.30;;;;;;;;;;10444818;28;20037;-82
2023/07/08 13:17:41;;;;;;;2.60;2.28;;;;;;;;;;10443977;28;20504;-83
2023/07/08 13:22:45;;;;;;;3.63;2.55;;;;;;;;;;10444130;28;20068;-83
2023/07/08 13:28:00;;;;;;;4.38;2.47;;;;;;;;;;10444884;28;20032;-82
2023/07/08 13:33:03;;;;;;;3.20;2.35;;;;;;;;;;10443242;28;20033;-83
2023/07/08 13:38:04;;;;;;;3.60;2.35;;;;;;;;;;10442488;28;20047;-82
2023/07/08 13:43:05;;;;;;;3.42;2.08;;;;;;;;;;10444177;28;20552;-83
2023/07/08 13:48:13;;;;;;;4.88;2.58;;;;;;;;;;10442415;28;20082;-84
2023/07/08 13:53:19;;;;;;;6.55;2.47;;;;;;;;;;10443511;28;20025;-84
2023/07/08 13:58:20;;;;;;;2.85;2.00;;;;;;;;;;10443886;28;20045;-85
2023/07/08 14:03:21;;;;;;;2.97;2.03;;;;;;;;;;10444307;28;20051;-82
2023/07/08 14:08:22;;;;;;;3.45;2.17;;;;;;;;;;10443712;28;20121;-82
2023/07/08 14:13:25;;;;;;;5.68;2.35;;;;;;;;;;10447701;28;20026;-81
2023/07/08 14:18:26;;;;;;;2.70;2.28;;;;;;;;;;10444140;28;20130;-83
2023/07/08 14:23:27;;;;;;;3.95;2.58;;;;;;;;;;10443520;28;20037;-82
2023/07/08 14:28:28;;;;;;;3.97;2.33;;;;;;;;;;10439113;28;20036;-86
2023/07/08 14:33:29;;;;;;;3.35;2.60;;;;;;;;;;10428900;28;20029;-83
2023/07/08 14:38:30;;;;;;;4.57;2.20;;;;;;;;;;10438586;28;20032;-83
2023/07/08 14:43:33;;;;;;;3.33;2.70;;;;;;;;;;10441653;28;20133;-84
2023/07/08 14:48:34;;;;;;;3.00;2.28;;;;;;;;;;10441193;28;20032;-83
2023/07/08 14:53:35;;;;;;;3.50;2.72;;;;;;;;;;10442842;28;20025;-84
2023/07/08 14:58:44;;;;;;;3.95;2.72;;;;;;;;;;10443408;28;20036;-82
2023/07/08 15:03:45;;;;;;;2.15;1.85;;;;;;;;;;10449697;28;20082;-84
2023/07/08 15:08:47;;;;;;;6.85;4.18;;;;;;;;;;10450561;28;20044;-82
2023/07/08 15:13:48;;;;;;;4.68;2.88;;;;;;;;;;10450783;28;20037;-83
2023/07/08 15:18:49;;;;;;;4.13;2.58;;;;;;;;;;10449962;28;20060;-81
2023/07/08 15:23:50;;;;;;;4.25;2.67;;;;;;;;;;10450577;28;20380;-82
2023/07/08 15:28:52;;;;;;;4.68;3.05;;;;;;;;;;10436814;28;20033;-82
2023/07/08 15:33:53;;;;;;;2.90;2.40;;;;;;;;;;10450058;28;20558;-82
2023/07/08 15:38:54;;;;;;;3.75;2.67;;;;;;;;;;10449148;28;20036;-82
2023/07/08 15:43:55;;;;;;;3.03;2.70;;;;;;;;;;10448837;28;20064;-82
2023/07/08 15:48:56;;;;;;;3.90;2.70;;;;;;;;;;10449092;28;20032;-82
2023/07/08 15:53:57;;;;;;;2.92;2.50;;;;;;;;;;10448548;28;20527;-82
2023/07/08 15:59:00;;;;;;;5.90;2.55;;;;;;;;;;10448559;28;20058;-83
2023/07/08 16:04:01;;;;;;;4.03;2.55;;;;;;;;;;10448331;28;20033;-82
2023/07/08 16:09:03;;;;;;;2.72;2.22;;;;;;;;;;10448451;28;20057;-84
2023/07/08 16:14:04;;;;;;;2.78;2.10;;;;;;;;;;10448065;28;20064;-84
2023/07/08 16:19:05;;;;;;;4.28;2.20;;;;;;;;;;10447873;28;20025;-83
2023/07/08 16:24:06;;;;;;;2.90;1.92;;;;;;;;;;10447977;28;20043;-83
2023/07/08 16:29:10;;;;;;;6.97;4.70;;;;;;;;;;10447118;28;20021;-83
2023/07/08 16:34:11;;;;;;;9.27;5.43;;;;;;;;;;10446944;28;20370;-84
2023/07/08 16:39:12;;;;;;;6.55;3.50;;;;;;;;;;10446853;28;20032;-84
2023/07/08 16:44:15;;;;;;;4.05;2.60;;;;;;;;;;10446690;28;20740;-82
2023/07/08 16:49:16;;;;;;;4.28;3.13;;;;;;;;;;10447083;28;20071;-83
2023/07/08 16:54:18;;;;;;;3.92;2.60;;;;;;;;;;10446150;28;20056;-85
2023/07/08 16:59:19;;;;;;;2.30;1.98;;;;;;;;;;10446892;28;20044;-85
2023/07/08 17:04:20;;;;;;;3.85;1.92;;;;;;;;;;10446155;28;20870;-83
2023/07/08 17:09:21;;;;;;;3.90;2.28;;;;;;;;;;10445110;28;20065;-82
2023/07/08 17:14:22;;;;;;;4.40;2.08;;;;;;;;;;10444131;28;20035;-83
2023/07/08 17:19:23;;;;;;;2.30;2.10;;;;;;;;;;10445274;28;20499;-83
2023/07/08 17:24:24;;;;;;;2.92;2.05;;;;;;;;;;10444294;28;20035;-85
2023/07/08 17:29:26;;;;;;;2.30;2.10;;;;;;;;;;10443149;28;20537;-85
2023/07/08 17:34:27;;;;;;;2.88;1.90;;;;;;;;;;10445382;28;20413;-83
2023/07/08 17:39:28;;;;;;;3.28;2.38;;;;;;;;;;10444432;28;20043;-84
2023/07/08 17:44:29;;;;;;;2.40;2.10;;;;;;;;;;10444117;28;20044;-83
2023/07/08 17:49:30;;;;;;;3.45;1.95;;;;;;;;;;10443354;28;20039;-82
2023/07/08 17:54:31;;;;;;;2.20;1.90;;;;;;;;;;10444379;28;20060;-84
2023/07/08 17:59:32;;;;;;;3.83;2.40;;;;;;;;;;10444483;28;20449;-84
2023/07/08 18:04:33;;;;;;;4.43;2.08;;;;;;;;;;10434601;28;20400;-83
2023/07/08 18:09:34;;;;;;;2.30;2.00;;;;;;;;;;10441739;28;20060;-83
2023/07/08 18:14:35;;;;;;;3.22;2.10;;;;;;;;;;10442583;28;20035;-83
2023/07/08 18:19:36;;;;;;;1.95;1.75;;;;;;;;;;10443346;28;20066;-84
2023/07/08 18:24:37;;;;;;;3.05;2.17;;;;;;;;;;10443144;28;20025;-83
2023/07/08 18:29:38;;;;;;;2.58;1.83;;;;;;;;;;10443412;28;20108;-83
2023/07/08 18:34:39;;;;;;;4.00;2.55;;;;;;;;;;10445481;28;20033;-83
2023/07/08 18:39:40;;;;;;;3.40;2.10;;;;;;;;;;10451605;28;20094;-83
2023/07/08 18:44:41;;;;;;;2.70;2.45;;;;;;;;;;10451646;28;20061;-84
2023/07/08 18:49:42;;;;;;;2.88;2.30;;;;;;;;;;10449805;28;20447;-82
2023/07/08 18:54:43;;;;;;;3.85;2.50;;;;;;;;;;10450760;28;20021;-83
2023/07/08 18:59:44;;;;;;;3.15;2.50;;;;;;;;;;10450501;28;20025;-83
2023/07/08 19:04:45;;;;;;;4.18;2.47;;;;;;;;;;10449614;28;20040;-83
2023/07/08 19:09:46;;;;;;;3.08;2.42;;;;;;;;;;10450316;28;20552;-84
2023/07/08 19:14:48;;;;;;;2.58;2.13;;;;;;;;;;10450542;28;20316;-83
2023/07/08 19:19:49;;;;;;;3.90;2.78;;;;;;;;;;10449038;28;20033;-83
2023/07/08 19:24:51;;;;;;;2.80;2.38;;;;;;;;;;10449553;28;20036;-83
2023/07/08 19:29:52;;;;;;;2.95;2.47;;;;;;;;;;10449874;28;20389;-83
2023/07/08 19:34:53;;;;;;;4.53;2.85;;;;;;;;;;10449525;28;20091;-84
2023/07/08 19:39:55;;;;;;;3.50;2.15;;;;;;;;;;10449333;28;20036;-84
2023/07/08 19:44:56;;;;;;;3.30;2.40;;;;;;;;;;10448638;28;20071;-84
2023/07/08 19:49:57;;;;;;;5.10;2.70;;;;;;;;;;10448439;28;20540;-83
2023/07/08 19:54:59;;;;;;;4.25;2.70;;;;;;;;;;10448712;28;20052;-84
2023/07/08 20:00:00;;;;;;;4.00;2.95;;;;;;;;;;10448273;28;20033;-84
2023/07/08 20:05:01;;;;;;;4.15;2.40;;;;;;;;;;10448617;28;20041;-84
2023/07/08 20:10:02;;;;;;;4.50;2.75;;;;;;;;;;10446509;28;20512;-83
2023/07/08 20:15:03;;;;;;;4.70;3.13;;;;;;;;;;10448386;28;20068;-83
2023/07/08 20:20:12;;;;;;;3.55;2.95;;;;;;;;;;10447921;28;20033;-83
2023/07/08 20:25:14;;;;;;;4.32;3.30;;;;;;;;;;10445993;28;20036;-84
2023/07/08 20:30:16;;;;;;;3.40;2.67;;;;;;;;;;10447860;28;20140;-83
2023/07/08 20:35:19;;;;;;;4.63;3.15;;;;;;;;;;10446645;28;20495;-84
2023/07/08 20:40:26;;;;;;;5.35;3.40;;;;;;;;;;10447216;28;20407;-83
2023/07/08 20:45:28;;;;;;;5.00;3.25;;;;;;;;;;10446565;28;20040;-83
2023/07/08 20:50:29;;;;;;;4.25;3.45;;;;;;;;;;10446728;28;20024;-85
2023/07/08 20:55:30;;;;;;;4.47;3.30;;;;;;;;;;10445354;28;20528;-83
2023/07/08 21:00:32;;;;;;;5.43;3.13;;;;;;;;;;10445408;28;20041;-83
2023/07/08 21:05:33;;;;;;;4.97;3.42;;;;;;;;;;10447351;28;20495;-83
2023/07/08 21:10:34;;;;;;;5.47;3.35;;;;;;;;;;10446214;28;20095;-84
2023/07/08 21:15:35;;;;;;;4.95;3.72;;;;;;;;;;10446051;28;20381;-83
2023/07/08 21:20:36;;;;;;;4.47;3.10;;;;;;;;;;10441807;28;20029;-84
2023/07/08 21:25:37;;;;;;;4.45;3.20;;;;;;;;;;10439752;28;20045;-79
2023/07/08 21:30:39;;;;;;;5.90;3.58;;;;;;;;;;10444184;28;20029;-80
2023/07/08 21:35:41;;;;;;;7.82;3.90;;;;;;;;;;10435924;28;20432;-79
2023/07/08 21:40:45;;;;;;;7.53;4.63;;;;;;;;;;10444163;28;20029;-81
2023/07/08 21:45:46;;;;;;;6.60;4.28;;;;;;;;;;10442633;28;20040;-83
2023/07/08 21:50:52;;;;;;;6.45;3.70;;;;;;;;;;10453587;28;20395;-81
2023/07/08 21:55:53;;;;;;;6.95;4.80;;;;;;;;;;10444508;28;20449;-82
2023/07/08 22:00:55;;;;;;;7.60;5.93;;;;;;;;;;10441852;28;20131;-80
2023/07/08 22:05:59;;;;;;;7.13;5.53;;;;;;;;;;10441993;28;20033;-81
2023/07/08 22:11:00;;;;;;;8.48;5.78;;;;;;;;;;10441012;28;20107;-82
2023/07/08 22:16:03;;;;;;;8.63;6.35;;;;;;;;;;10443451;28;20459;-80
2023/07/08 22:21:06;;;;;;;9.52;6.85;;;;;;;;;;10442967;28;20037;-81
2023/07/08 22:26:07;;;;;;;11.90;7.78;;;;;;;;;;10442873;28;20059;-80
2023/07/08 22:31:29;;;;;;;13.70;8.13;;;;;;;;;;10441107;28;20704;-81
2023/07/08 22:36:30;;;;;;;12.10;8.20;;;;;;;;;;10441838;28;20040;-80
2023/07/08 22:41:35;;;;;;;14.13;9.63;;;;;;;;;;10441528;28;20037;-80
2023/07/08 22:46:36;;;;;;;19.13;10.97;;;;;;;;;;10442571;28;20040;-80
2023/07/08 22:51:39;;;;;;;17.38;11.73;;;;;;;;;;10440333;28;20117;-81
2023/07/08 22:56:40;;;;;;;14.85;10.68;;;;;;;;;;10442242;28;20021;-80
2023/07/08 23:01:41;;;;;;;15.70;10.35;;;;;;;;;;10440912;28;20645;-80
2023/07/08 23:06:43;;;;;;;17.17;11.13;;;;;;;;;;10442690;28;20079;-80
2023/07/08 23:11:44;;;;;;;15.43;10.70;;;;;;;;;;10440930;28;20056;-79
2023/07/08 23:16:46;;;;;;;16.65;11.18;;;;;;;;;;10441261;28;20036;-80
2023/07/08 23:21:47;;;;;;;16.60;11.00;;;;;;;;;;10441802;28;20042;-80
2023/07/08 23:26:48;;;;;;;15.55;11.02;;;;;;;;;;10450248;28;20037;-79
2023/07/08 23:31:49;;;;;;;15.27;10.98;;;;;;;;;;10449395;28;20040;-80
2023/07/08 23:36:52;;;;;;;17.60;10.90;;;;;;;;;;10448805;28;20201;-80
2023/07/08 23:41:55;;;;;;;17.52;11.40;;;;;;;;;;10447719;28;20035;-79
2023/07/08 23:46:58;;;;;;;18.20;11.90;;;;;;;;;;10447432;28;20722;-80
2023/07/08 23:51:59;;;;;;;20.15;13.95;;;;;;;;;;10446673;28;20045;-79
2023/07/08 23:57:02;;;;;;;41.50;26.25;;;;;;;;;;10448289;28;20044;-81
